Time;durP1;ratioP1;P1;durP2;ratioP2;P2;SDS_P1;SDS_P2;PMS_P1;PMS_P2;Temp;Humidity;BMP_temperature;BMP_pressure;BME280_temperature;BME280_humidity;BME280_pressure;Samples;Min_cycle;Max_cycle;Signal;HPM_P1;HPM_P2
2021/06/30 00:00:39;;;;;;;14.68;8.88;;;;;;;13.57;100.00;101459.22;4951673;28;21589;-71
2021/06/30 00:03:11;;;;;;;21.48;10.15;;;;;;;13.45;99.96;101453.38;4956521;28;20069;-71
2021/06/30 00:05:44;;;;;;;17.75;9.70;;;;;;;13.54;99.97;101451.31;4954038;28;20489;-72
2021/06/30 00:08:18;;;;;;;17.55;9.65;;;;;;;13.47;100.00;101450.63;4956685;28;20145;-71
2021/06/30 00:10:51;;;;;;;15.18;8.63;;;;;;;13.44;99.84;101450.75;4955288;28;20074;-71
2021/06/30 00:13:24;;;;;;;17.38;9.68;;;;;;;13.45;100.00;101448.00;4953324;28;20063;-71
2021/06/30 00:15:57;;;;;;;20.17;9.63;;;;;;;13.41;100.00;101449.03;4952502;28;20077;-71
2021/06/30 00:18:29;;;;;;;25.55;8.95;;;;;;;13.41;100.00;101458.88;4956538;28;20055;-72
2021/06/30 00:21:03;;;;;;;17.98;8.70;;;;;;;13.31;99.63;101454.72;4951980;28;20145;-72
2021/06/30 00:23:37;;;;;;;19.38;8.85;;;;;;;13.31;99.93;101455.59;4957934;28;20395;-72
2021/06/30 00:26:09;;;;;;;16.20;7.88;;;;;;;13.37;99.45;101457.25;4950298;28;20125;-72
2021/06/30 00:28:42;;;;;;;17.17;8.30;;;;;;;13.36;99.48;101452.78;4955785;28;20082;-72
2021/06/30 00:31:15;;;;;;;19.35;7.63;;;;;;;13.37;100.00;101450.06;4954799;28;20074;-71
2021/06/30 00:33:48;;;;;;;14.90;7.55;;;;;;;13.27;98.44;101460.19;4955239;28;20051;-71
2021/06/30 00:36:20;;;;;;;14.70;7.20;;;;;;;13.26;97.95;101458.44;4956664;28;20071;-71
2021/06/30 00:38:54;;;;;;;18.48;6.68;;;;;;;13.20;97.57;101455.09;4960694;28;20070;-71
2021/06/30 00:41:27;;;;;;;16.58;7.97;;;;;;;13.23;98.26;101455.88;4953249;28;20071;-71
2021/06/30 00:44:00;;;;;;;16.00;8.07;;;;;;;13.24;98.36;101446.88;4957055;28;20067;-71
2021/06/30 00:46:34;;;;;;;13.07;7.40;;;;;;;13.28;97.81;101450.34;4954162;28;20070;-71
2021/06/30 00:49:08;;;;;;;14.38;6.63;;;;;;;13.28;98.20;101450.34;4953488;28;20417;-72
2021/06/30 00:51:41;;;;;;;16.52;7.30;;;;;;;13.33;98.25;101440.41;4954143;28;21781;-70
2021/06/30 00:54:15;;;;;;;17.02;7.10;;;;;;;13.27;98.64;101452.13;4954449;28;20057;-71
2021/06/30 00:56:47;;;;;;;16.20;7.43;;;;;;;13.27;98.26;101451.28;4956542;28;20532;-71
2021/06/30 00:59:20;;;;;;;16.90;6.90;;;;;;;13.31;98.59;101444.88;4955654;28;20442;-70
2021/06/30 01:01:53;;;;;;;17.08;7.78;;;;;;;13.32;98.89;101438.63;4954325;28;20102;-70
2021/06/30 01:04:29;;;;;;;14.65;7.05;;;;;;;13.32;99.04;101438.63;4960856;28;20329;-70
2021/06/30 01:07:01;;;;;;;17.60;8.13;;;;;;;13.30;98.81;101432.41;4953724;28;20067;-70
2021/06/30 01:09:35;;;;;;;16.15;7.03;;;;;;;13.32;98.89;101435.94;4960125;28;20062;-72
2021/06/30 01:12:08;;;;;;;19.60;8.82;;;;;;;13.28;98.70;101436.97;4955558;28;20066;-70
2021/06/30 01:14:41;;;;;;;17.10;7.93;;;;;;;13.28;98.77;101434.28;4955402;28;20335;-70
2021/06/30 01:17:13;;;;;;;17.33;7.53;;;;;;;13.31;99.31;101434.16;4962065;28;20113;-72
2021/06/30 01:19:46;;;;;;;16.42;8.10;;;;;;;13.27;99.00;101436.06;4952553;28;20145;-72
2021/06/30 01:22:19;;;;;;;16.67;7.43;;;;;;;13.26;98.90;101430.75;4958480;28;20073;-70
2021/06/30 01:24:54;;;;;;;16.98;7.63;;;;;;;13.26;98.99;101434.31;4954119;28;20063;-72
2021/06/30 01:27:33;;;;;;;13.82;6.70;;;;;;;13.20;98.00;101434.53;4956850;28;20073;-72
2021/06/30 01:30:07;;;;;;;15.82;7.40;;;;;;;13.20;98.25;101433.66;4955527;28;20122;-72
2021/06/30 01:32:39;;;;;;;14.52;7.20;;;;;;;13.21;98.42;101435.38;4958130;28;20838;-72
2021/06/30 01:35:20;;;;;;;14.30;7.40;;;;;;;13.18;98.76;101436.38;4953107;28;20338;-73
2021/06/30 01:37:52;;;;;;;18.58;7.82;;;;;;;13.16;98.91;101435.56;4959942;28;20126;-70
2021/06/30 01:40:27;;;;;;;17.55;7.30;;;;;;;13.13;99.20;101437.44;4951166;28;20074;-70
2021/06/30 01:43:01;;;;;;;14.07;6.78;;;;;;;13.13;99.73;101427.63;4959672;28;20426;-70
2021/06/30 01:45:34;;;;;;;16.75;8.50;;;;;;;13.14;100.00;101433.84;4954387;28;20067;-73
2021/06/30 01:48:07;;;;;;;20.37;8.57;;;;;;;13.14;100.00;101440.06;4956531;28;20188;-71
2021/06/30 01:50:35;;;;;;;18.95;8.02;;;;;;;13.17;100.00;101441.78;4953862;28;20309;-70
2021/06/30 01:53:07;;;;;;;18.13;8.45;;;;;;;13.22;100.00;101439.84;4954916;28;20062;-71
2021/06/30 01:55:41;;;;;;;17.75;9.18;;;;;;;13.26;100.00;101434.31;4956466;28;20066;-71
2021/06/30 01:58:17;;;;;;;15.60;8.40;;;;;;;13.20;99.87;101423.81;4954567;28;20071;-71
2021/06/30 02:00:51;;;;;;;19.08;8.80;;;;;;;13.21;99.74;101417.53;4951931;28;20067;-72
2021/06/30 02:03:24;;;;;;;14.70;7.68;;;;;;;13.26;100.00;101417.34;4956626;28;20130;-72
2021/06/30 02:05:57;;;;;;;15.15;8.13;;;;;;;13.16;99.91;101423.94;4953882;28;20074;-71
2021/06/30 02:08:29;;;;;;;18.25;8.98;;;;;;;13.15;100.00;101424.91;4957658;28;20121;-71
2021/06/30 02:11:03;;;;;;;13.88;6.38;;;;;;;13.03;99.22;101420.81;4952981;28;20095;-73
2021/06/30 02:13:36;;;;;;;13.75;7.03;;;;;;;12.99;99.89;101424.50;4957810;28;20067;-73
2021/06/30 02:16:09;;;;;;;14.23;7.80;;;;;;;12.98;100.00;101423.63;4957572;28;20071;-72
2021/06/30 02:18:42;;;;;;;15.82;7.25;;;;;;;12.87;100.00;101429.34;4959482;28;20058;-72
2021/06/30 02:21:15;;;;;;;19.77;7.43;;;;;;;12.88;100.00;101433.78;4954411;28;20121;-72
2021/06/30 02:23:48;;;;;;;13.23;6.17;;;;;;;12.92;99.82;101425.63;4957572;28;20362;-73
2021/06/30 02:26:22;;;;;;;11.60;6.25;;;;;;;12.83;99.50;101429.50;4952211;28;20070;-72
2021/06/30 02:28:55;;;;;;;13.13;5.15;;;;;;;12.77;99.59;101425.22;4955558;28;20110;-72
2021/06/30 02:31:28;;;;;;;11.52;5.00;;;;;;;12.76;98.81;101426.13;4953624;28;20501;-73
2021/06/30 02:34:00;;;;;;;11.27;5.40;;;;;;;12.69;98.11;101422.78;4954119;28;20391;-73
2021/06/30 02:36:33;;;;;;;10.85;5.35;;;;;;;12.60;98.22;101417.72;4953197;28;20059;-74
2021/06/30 02:39:06;;;;;;;10.20;4.90;;;;;;;12.58;98.16;101421.34;4954559;28;20066;-73
2021/06/30 02:41:40;;;;;;;13.17;5.00;;;;;;;12.59;98.74;101415.97;4954095;28;20098;-73
2021/06/30 02:44:13;;;;;;;12.90;7.38;;;;;;;12.61;99.03;101419.47;4957176;28;21952;-77
2021/06/30 02:46:46;;;;;;;12.25;5.53;;;;;;;12.61;99.75;101413.25;4956405;28;20059;-73
2021/06/30 02:49:18;;;;;;;12.07;5.93;;;;;;;12.65;99.23;101414.88;4954595;28;20529;-74
2021/06/30 02:51:51;;;;;;;10.93;5.32;;;;;;;12.60;99.68;101412.38;4952966;28;20062;-74
2021/06/30 02:54:23;;;;;;;14.30;6.22;;;;;;;12.61;100.00;101415.91;4956955;28;20086;-74
2021/06/30 02:56:57;;;;;;;13.35;5.65;;;;;;;12.62;100.00;101410.50;4954171;28;20071;-73
2021/06/30 02:59:30;;;;;;;17.25;7.35;;;;;;;12.66;100.00;101405.94;4953236;28;20059;-74
2021/06/30 03:02:03;;;;;;;12.82;5.90;;;;;;;12.67;100.00;101419.28;4952194;28;20074;-71
2021/06/30 03:04:36;;;;;;;13.20;5.82;;;;;;;12.67;100.00;101421.94;4953546;28;20323;-71
2021/06/30 03:07:08;;;;;;;16.93;6.70;;;;;;;12.70;99.85;101421.88;4953118;28;20070;-71
2021/06/30 03:09:41;;;;;;;15.90;5.65;;;;;;;12.65;99.44;101412.19;4957646;28;20098;-71
2021/06/30 03:12:15;;;;;;;12.20;5.63;;;;;;;12.58;97.97;101405.28;4951881;28;20346;-69
2021/06/30 03:14:47;;;;;;;14.00;6.07;;;;;;;12.55;97.37;101408.06;4954335;28;20391;-71
2021/06/30 03:17:20;;;;;;;16.08;6.22;;;;;;;12.52;96.68;101404.56;4955320;28;20508;-70
2021/06/30 03:19:52;;;;;;;15.90;6.80;;;;;;;12.52;97.36;101398.34;4958402;28;20389;-71
2021/06/30 03:22:25;;;;;;;15.55;6.30;;;;;;;12.50;96.44;101406.41;4957398;28;20066;-71
2021/06/30 03:24:58;;;;;;;14.05;6.07;;;;;;;12.47;96.15;101401.16;4950881;28;20466;-71
2021/06/30 03:27:32;;;;;;;11.93;5.47;;;;;;;12.44;96.27;101400.38;4956368;28;20070;-71
2021/06/30 03:30:07;;;;;;;13.55;6.07;;;;;;;12.37;95.41;101407.72;4954293;28;20669;-71
2021/06/30 03:32:40;;;;;;;13.73;5.55;;;;;;;12.36;95.51;101405.09;4954250;28;20071;-71
2021/06/30 03:35:13;;;;;;;13.43;5.87;;;;;;;12.32;95.58;101396.28;4952553;28;20394;-71
2021/06/30 03:37:46;;;;;;;11.83;4.90;;;;;;;12.34;95.58;101399.78;4956172;28;20051;-71
2021/06/30 03:40:18;;;;;;;13.02;5.80;;;;;;;12.33;95.99;101401.59;4954666;28;20104;-70
2021/06/30 03:42:52;;;;;;;13.45;6.05;;;;;;;12.32;95.87;101402.50;4954344;28;20050;-70
2021/06/30 03:45:25;;;;;;;14.13;6.65;;;;;;;12.35;96.33;101416.72;4952132;28;20066;-74
2021/06/30 03:47:57;;;;;;;11.75;5.57;;;;;;;12.38;96.56;101416.59;4955488;28;20058;-75
2021/06/30 03:50:25;;;;;;;15.32;6.85;;;;;;;12.38;97.02;101405.91;4951769;28;20060;-75
2021/06/30 03:52:58;;;;;;;11.27;6.13;;;;;;;12.37;96.89;101404.16;4955396;28;20070;-75
2021/06/30 03:55:30;;;;;;;14.98;6.55;;;;;;;12.36;97.05;101407.75;4957081;28;20063;-75
2021/06/30 03:58:04;;;;;;;18.30;6.70;;;;;;;12.36;97.61;101418.47;4959997;28;20307;-74
2021/06/30 04:00:37;;;;;;;13.35;6.60;;;;;;;12.45;97.92;101410.16;4951715;28;20051;-75
2021/06/30 04:03:10;;;;;;;15.38;6.65;;;;;;;12.43;98.11;101414.66;4954857;28;20534;-74
2021/06/30 04:05:44;;;;;;;21.05;7.85;;;;;;;12.39;97.72;101426.41;4953834;28;20062;-75
2021/06/30 04:08:17;;;;;;;13.80;6.63;;;;;;;12.35;98.01;101416.72;4956091;28;20069;-76
2021/06/30 04:10:50;;;;;;;15.85;6.38;;;;;;;12.34;98.36;101423.84;4951353;28;20073;-75
2021/06/30 04:13:24;;;;;;;15.20;6.65;;;;;;;12.35;98.25;101433.66;4954577;28;20507;-75
2021/06/30 04:15:56;;;;;;;13.43;6.40;;;;;;;12.38;97.83;101443.38;4950841;28;20075;-74
2021/06/30 04:18:29;;;;;;;14.60;6.88;;;;;;;12.45;98.40;101448.50;4953821;28;20070;-73
2021/06/30 04:20:57;;;;;;;16.40;6.85;;;;;;;12.43;97.85;101447.69;4949972;28;20618;-72
2021/06/30 04:23:24;;;;;;;15.18;7.00;;;;;;;12.35;98.02;101448.84;4960063;28;20062;-73
2021/06/30 04:25:57;;;;;;;17.65;6.72;;;;;;;12.36;98.51;101447.91;4954126;28;20071;-73
2021/06/30 04:28:31;;;;;;;15.63;6.28;;;;;;;12.41;99.27;101451.31;4960341;28;20077;-73
2021/06/30 04:31:04;;;;;;;14.45;5.72;;;;;;;12.28;98.82;101448.16;4955753;28;20194;-73
2021/06/30 04:33:36;;;;;;;15.93;6.45;;;;;;;12.29;99.98;101441.84;4959533;28;20315;-72
2021/06/30 04:36:09;;;;;;;16.05;7.00;;;;;;;12.24;100.00;101447.34;4957507;28;20055;-72
2021/06/30 04:38:42;;;;;;;18.30;6.90;;;;;;;12.33;100.00;101447.06;4957761;28;20359;-71
2021/06/30 04:41:15;;;;;;;13.32;5.95;;;;;;;12.41;100.00;101448.63;4958287;28;20072;-72
2021/06/30 04:43:49;;;;;;;15.70;7.30;;;;;;;12.35;100.00;101443.50;4959414;28;20090;-72
2021/06/30 04:46:21;;;;;;;19.23;7.40;;;;;;;12.27;100.00;101447.25;4955437;28;20875;-73
2021/06/30 04:48:54;;;;;;;14.82;6.57;;;;;;;12.30;100.00;101433.78;4958615;28;20114;-72
2021/06/30 04:51:27;;;;;;;12.70;6.95;;;;;;;12.29;100.00;101433.81;4954615;28;20077;-72
2021/06/30 04:53:59;;;;;;;13.75;6.93;;;;;;;12.33;100.00;101439.03;4957992;28;20074;-72
2021/06/30 04:56:40;;;;;;;17.35;7.38;;;;;;;12.26;100.00;101433.91;4955535;28;20082;-71
2021/06/30 04:59:09;;;;;;;16.35;7.57;;;;;;;12.31;100.00;101430.19;4957973;28;20472;-72
2021/06/30 05:01:42;;;;;;;15.40;7.63;;;;;;;12.27;100.00;101430.31;4954297;28;20070;-72
2021/06/30 05:04:14;;;;;;;16.13;7.47;;;;;;;12.36;100.00;101423.81;4958969;28;20070;-73
2021/06/30 05:06:47;;;;;;;16.50;7.75;;;;;;;12.41;100.00;101414.75;4954028;28;20693;-73
2021/06/30 05:09:20;;;;;;;16.17;7.53;;;;;;;12.42;100.00;101413.81;4957846;28;20054;-73
2021/06/30 05:11:52;;;;;;;17.50;7.38;;;;;;;12.53;100.00;101418.81;4959321;28;20384;-73
2021/06/30 05:14:26;;;;;;;14.48;7.72;;;;;;;12.58;100.00;101414.22;4958646;28;20062;-72
2021/06/30 05:16:59;;;;;;;16.00;8.25;;;;;;;12.58;100.00;101418.69;4957912;28;20481;-73
2021/06/30 05:19:32;;;;;;;18.70;8.63;;;;;;;12.62;100.00;101417.69;4957809;28;20070;-73
2021/06/30 05:22:05;;;;;;;19.97;8.93;;;;;;;12.69;100.00;101416.56;4961604;28;20149;-72
2021/06/30 05:24:38;;;;;;;19.33;8.93;;;;;;;12.64;100.00;101413.16;4959335;28;20774;-71
2021/06/30 05:27:10;;;;;;;17.70;8.13;;;;;;;12.67;100.00;101421.09;4961474;28;20070;-71
2021/06/30 05:29:44;;;;;;;18.85;8.13;;;;;;;12.70;100.00;101427.22;4957172;28;20114;-72
2021/06/30 05:32:17;;;;;;;21.23;10.27;;;;;;;12.75;100.00;101419.00;4960625;28;20059;-72
2021/06/30 05:34:49;;;;;;;25.90;10.85;;;;;;;12.70;100.00;101429.00;4961010;28;20311;-72
2021/06/30 05:37:22;;;;;;;23.00;9.45;;;;;;;12.75;100.00;101426.19;4963238;28;20342;-72
2021/06/30 05:39:55;;;;;;;20.20;9.57;;;;;;;12.80;nan;101426.91;4954478;28;20075;-73
2021/06/30 05:42:27;;;;;;;18.08;8.05;;;;;;;12.70;100.00;101426.31;4957490;28;20062;-71
2021/06/30 05:45:01;;;;;;;18.80;9.50;;;;;;;12.76;100.00;101426.13;4956919;28;20081;-72
2021/06/30 05:47:34;;;;;;;18.42;9.98;;;;;;;12.86;100.00;101426.72;4956103;28;20067;-72
2021/06/30 05:50:08;;;;;;;19.87;9.10;;;;;;;12.77;100.00;101425.22;4955775;28;20375;-72
2021/06/30 05:52:41;;;;;;;17.92;8.13;;;;;;;12.75;100.00;101418.16;4957136;28;20315;-72
2021/06/30 05:55:13;;;;;;;13.50;7.63;;;;;;;12.77;100.00;101416.28;4954667;28;20074;-73
2021/06/30 05:57:46;;;;;;;18.88;9.50;;;;;;;12.87;100.00;101423.09;4956790;28;20335;-72
2021/06/30 06:00:22;;;;;;;18.85;8.75;;;;;;;12.90;100.00;101420.34;4954234;28;20067;-71
2021/06/30 06:02:54;;;;;;;16.65;8.27;;;;;;;12.95;100.00;101426.41;4956892;28;20071;-72
2021/06/30 06:05:27;;;;;;;18.08;9.50;;;;;;;12.90;100.00;101433.72;4957986;28;20073;-72
2021/06/30 06:08:00;;;;;;;20.77;9.25;;;;;;;12.78;100.00;101426.09;4956247;28;20071;-72
2021/06/30 06:10:33;;;;;;;21.38;9.07;;;;;;;12.83;100.00;101432.19;4955511;28;20070;-71
2021/06/30 06:13:05;;;;;;;16.93;9.13;;;;;;;12.80;100.00;101433.13;4959299;28;20264;-72
2021/06/30 06:15:39;;;;;;;17.65;7.72;;;;;;;12.93;100.00;101433.63;4958407;28;20384;-70
2021/06/30 06:18:12;;;;;;;17.05;8.38;;;;;;;12.82;98.55;101433.09;4961065;28;20417;-70
2021/06/30 06:20:44;;;;;;;15.02;7.82;;;;;;;12.90;98.92;101436.41;4956699;28;20078;-73
2021/06/30 06:23:17;;;;;;;16.05;6.90;;;;;;;12.91;99.12;101432.81;4962796;28;20070;-73
2021/06/30 06:25:49;;;;;;;21.00;7.70;;;;;;;12.81;98.65;101426.00;4958267;28;20055;-74
2021/06/30 06:28:22;;;;;;;21.98;8.48;;;;;;;12.80;99.27;101429.59;4960664;28;20101;-73
2021/06/30 06:30:56;;;;;;;18.55;7.97;;;;;;;12.77;98.48;101432.34;4955720;28;20432;-74
2021/06/30 06:33:24;;;;;;;21.88;8.20;;;;;;;12.69;98.79;101433.47;4961048;28;20073;-74
2021/06/30 06:35:57;;;;;;;22.10;9.30;;;;;;;12.70;99.09;101431.66;4959004;28;20066;-75
2021/06/30 06:38:31;;;;;;;22.10;9.02;;;;;;;12.74;99.45;101430.66;4960190;28;20105;-74
2021/06/30 06:41:04;;;;;;;18.23;7.57;;;;;;;12.77;99.89;101440.41;4955567;28;20121;-74
2021/06/30 06:43:40;;;;;;;18.48;8.38;;;;;;;12.73;99.69;101438.75;4959114;28;20069;-74
2021/06/30 06:46:14;;;;;;;18.23;9.15;;;;;;;12.77;100.00;101437.72;4955841;28;20343;-70
2021/06/30 06:48:47;;;;;;;20.35;8.55;;;;;;;12.79;100.00;101438.56;4959257;28;20346;-71
2021/06/30 06:51:20;;;;;;;22.33;9.35;;;;;;;12.77;99.99;101440.41;4957910;28;20318;-69
2021/06/30 06:53:52;;;;;;;15.27;8.18;;;;;;;12.78;100.00;101445.69;4959171;28;20066;-71
2021/06/30 06:56:26;;;;;;;18.48;8.10;;;;;;;12.83;100.00;101442.88;4956936;28;20074;-70
2021/06/30 06:58:59;;;;;;;17.02;8.88;;;;;;;12.85;100.00;101449.94;4960063;28;20067;-70
2021/06/30 07:01:33;;;;;;;18.45;7.88;;;;;;;12.88;100.00;101448.97;4954254;28;20071;-70
2021/06/30 07:04:05;;;;;;;20.40;7.93;;;;;;;12.86;100.00;101450.84;4958959;28;20070;-70
2021/06/30 07:06:38;;;;;;;17.98;7.95;;;;;;;12.91;100.00;101451.56;4955888;28;20071;-69
2021/06/30 07:09:10;;;;;;;16.55;7.57;;;;;;;12.94;99.91;101446.09;4959374;28;20074;-70
2021/06/30 07:11:44;;;;;;;18.73;7.38;;;;;;;12.96;100.00;101449.59;4957926;28;20375;-70
2021/06/30 07:14:16;;;;;;;18.63;8.57;;;;;;;12.96;100.00;101457.66;4963000;28;20129;-70
2021/06/30 07:16:51;;;;;;;21.83;8.70;;;;;;;12.93;100.00;101449.69;4962983;28;20119;-70
2021/06/30 07:19:23;;;;;;;18.17;9.00;;;;;;;13.00;99.88;101447.69;4961759;28;20326;-69
2021/06/30 07:21:56;;;;;;;20.13;8.05;;;;;;;13.12;100.00;101451.78;4960040;28;20074;-69
2021/06/30 07:24:29;;;;;;;18.05;10.32;;;;;;;13.12;99.81;101452.66;4955559;28;20103;-70
2021/06/30 07:27:02;;;;;;;18.58;8.30;;;;;;;13.14;99.45;101448.13;4959025;28;20125;-69
2021/06/30 07:29:34;;;;;;;16.90;8.80;;;;;;;13.12;97.92;101449.09;4959079;28;20071;-69
2021/06/30 07:32:09;;;;;;;16.50;8.53;;;;;;;13.16;98.54;101448.97;4960183;28;20069;-69
2021/06/30 07:34:41;;;;;;;17.33;7.95;;;;;;;13.14;98.01;101449.94;4955859;28;20122;-69
2021/06/30 07:37:14;;;;;;;18.70;8.30;;;;;;;13.11;96.88;101453.59;4956277;28;20063;-68
2021/06/30 07:39:47;;;;;;;16.45;7.43;;;;;;;13.19;97.87;101459.56;4952038;28;20101;-69
2021/06/30 07:42:21;;;;;;;19.85;7.47;;;;;;;13.15;96.75;101451.69;4958180;28;20063;-68
2021/06/30 07:44:53;;;;;;;15.70;7.35;;;;;;;13.16;96.34;101453.41;4951485;28;20066;-68
2021/06/30 07:47:22;;;;;;;17.15;8.00;;;;;;;13.19;96.90;101458.69;4956304;28;20063;-68
2021/06/30 07:49:50;;;;;;;15.80;7.05;;;;;;;13.26;96.69;101455.78;4954959;28;20067;-69
2021/06/30 07:52:18;;;;;;;19.10;8.40;;;;;;;13.42;97.32;101464.19;4957791;28;20187;-69
2021/06/30 07:54:46;;;;;;;16.92;7.68;;;;;;;13.32;97.62;101467.25;4957845;28;20131;-68
2021/06/30 07:57:13;;;;;;;17.75;8.45;;;;;;;13.38;97.88;101475.97;4958484;28;20066;-68
2021/06/30 07:59:41;;;;;;;19.27;8.52;;;;;;;13.39;98.10;101474.13;4959494;28;20838;-68
2021/06/30 08:02:09;;;;;;;19.23;8.68;;;;;;;13.47;98.40;101476.53;4963597;28;20130;-68
2021/06/30 08:04:38;;;;;;;16.80;7.82;;;;;;;13.48;98.27;101467.59;4958607;28;20606;-68
2021/06/30 08:07:06;;;;;;;19.92;8.88;;;;;;;13.36;98.40;101474.25;4962862;28;20067;-67
2021/06/30 08:09:35;;;;;;;16.15;8.75;;;;;;;13.47;99.55;101482.81;4958328;28;20134;-67
2021/06/30 08:12:05;;;;;;;17.55;7.68;;;;;;;13.47;99.65;101480.13;4962346;28;20109;-68
2021/06/30 08:14:33;;;;;;;17.20;8.13;;;;;;;13.42;99.59;101476.72;4960910;28;20153;-68
2021/06/30 08:17:02;;;;;;;16.35;8.40;;;;;;;13.42;100.00;101480.28;4955640;28;20085;-68
2021/06/30 08:19:30;;;;;;;18.98;7.78;;;;;;;13.31;99.71;101468.13;4960035;28;20090;-67
2021/06/30 08:22:00;;;;;;;18.05;7.95;;;;;;;13.27;100.00;101475.41;4960350;28;20311;-68
2021/06/30 08:24:28;;;;;;;21.75;10.23;;;;;;;13.19;99.69;101472.09;4959888;28;20344;-68
2021/06/30 08:26:55;;;;;;;16.40;8.65;;;;;;;13.11;99.57;101475.03;4959397;28;20086;-67
2021/06/30 08:29:24;;;;;;;15.15;8.05;;;;;;;13.19;100.00;101475.63;4964548;28;20067;-68
2021/06/30 08:31:56;;;;;;;19.55;8.32;;;;;;;13.11;100.00;101479.50;4959508;28;20434;-68
2021/06/30 08:34:25;;;;;;;16.63;8.77;;;;;;;13.12;100.00;101479.44;4963270;28;20113;-68
2021/06/30 08:36:57;;;;;;;20.92;8.00;;;;;;;13.26;100.00;101481.66;4957860;28;20098;-68
2021/06/30 08:39:27;;;;;;;17.17;8.48;;;;;;;13.20;100.00;101485.44;4963590;28;20066;-69
2021/06/30 08:41:55;;;;;;;17.27;8.02;;;;;;;13.16;100.00;101488.25;4958723;28;20074;-71
2021/06/30 08:44:23;;;;;;;18.52;7.63;;;;;;;13.16;100.00;101482.91;4961938;28;20074;-71
2021/06/30 08:46:51;;;;;;;16.00;6.75;;;;;;;13.14;100.00;101484.75;4958824;28;20102;-72
2021/06/30 08:49:25;;;;;;;17.10;7.85;;;;;;;13.16;100.00;101485.56;4961436;28;20509;-71
2021/06/30 08:51:53;;;;;;;18.15;7.95;;;;;;;13.18;100.00;101491.78;4960584;28;20148;-71
2021/06/30 08:54:23;;;;;;;15.50;7.20;;;;;;;13.17;100.00;101493.56;4962402;28;20179;-72
2021/06/30 08:56:53;;;;;;;15.15;7.57;;;;;;;13.18;100.00;101495.34;4956809;28;20067;-72
2021/06/30 08:59:21;;;;;;;15.77;6.45;;;;;;;13.27;100.00;101488.78;4964801;28;20141;-72
2021/06/30 09:01:50;;;;;;;17.00;6.43;;;;;;;13.34;100.00;101482.31;4957769;28;20043;-71
2021/06/30 09:04:17;;;;;;;12.73;6.20;;;;;;;13.47;100.00;101485.50;4961853;28;20070;-73
2021/06/30 09:06:46;;;;;;;15.55;6.18;;;;;;;13.45;100.00;101495.41;4955139;28;20166;-74
2021/06/30 09:09:14;;;;;;;13.02;5.57;;;;;;;13.48;100.00;101499.75;4956871;28;20105;-73
2021/06/30 09:11:44;;;;;;;13.10;6.05;;;;;;;13.50;100.00;101497.91;4961805;28;20173;-72
2021/06/30 09:14:21;;;;;;;13.45;6.13;;;;;;;13.37;100.00;101497.44;4957287;28;20066;-73
2021/06/30 09:16:57;;;;;;;16.67;5.90;;;;;;;13.43;100.00;101506.16;4959801;28;20047;-72
2021/06/30 09:19:50;;;;;;;10.25;5.25;;;;;;;13.41;100.00;101502.63;4958413;28;20374;-72
2021/06/30 09:22:18;;;;;;;13.20;5.82;;;;;;;13.38;100.00;101494.72;4957404;28;20161;-72
2021/06/30 09:24:47;;;;;;;9.88;4.72;;;;;;;13.38;100.00;101496.50;4956752;28;20497;-72
2021/06/30 09:27:17;;;;;;;13.82;5.05;;;;;;;13.38;100.00;101499.19;4959133;28;20070;-73
2021/06/30 09:29:47;;;;;;;8.38;4.22;;;;;;;13.36;100.00;101493.00;4958273;28;20353;-72
2021/06/30 09:32:17;;;;;;;10.75;4.65;;;;;;;13.51;100.00;101495.16;4960445;28;20074;-72
2021/06/30 09:34:46;;;;;;;9.63;4.40;;;;;;;13.36;100.00;101504.59;4957423;28;20047;-71
2021/06/30 09:37:14;;;;;;;11.20;4.25;;;;;;;13.44;100.00;101507.03;4960556;28;20378;-71
2021/06/30 09:39:54;;;;;;;11.52;4.72;;;;;;;13.30;100.00;101504.78;4957187;28;20066;-70
2021/06/30 09:42:29;;;;;;;11.48;4.70;;;;;;;13.32;100.00;101505.63;4959490;28;20062;-71
2021/06/30 09:45:13;;;;;;;12.32;5.22;;;;;;;13.51;100.00;101507.69;4956972;28;20066;-71
2021/06/30 09:47:45;;;;;;;11.10;4.97;;;;;;;13.76;100.00;101507.75;4957201;28;20067;-71
2021/06/30 09:50:15;;;;;;;11.63;5.05;;;;;;;13.71;100.00;101505.22;4955756;28;20264;-71
2021/06/30 09:52:44;;;;;;;13.60;4.68;;;;;;;13.78;100.00;101503.19;4957421;28;20066;-71
2021/06/30 09:55:25;;;;;;;9.27;4.25;;;;;;;13.84;100.00;101502.97;4957500;28;20078;-72
2021/06/30 09:57:53;;;;;;;9.38;4.70;;;;;;;13.81;100.00;101495.06;4961805;28;20086;-72
2021/06/30 10:00:26;;;;;;;9.98;4.75;;;;;;;13.97;100.00;101490.00;4952624;28;20114;-71
2021/06/30 10:02:54;;;;;;;10.88;4.90;;;;;;;14.01;99.97;101499.69;4959297;28;20066;-72
2021/06/30 10:05:30;;;;;;;10.65;4.82;;;;;;;14.19;99.62;101500.84;4958789;28;20067;-70
2021/06/30 10:08:13;;;;;;;8.05;4.32;;;;;;;14.11;97.37;101493.06;4958309;28;20109;-71
2021/06/30 10:10:43;;;;;;;10.57;4.65;;;;;;;14.14;97.10;101497.44;4957810;28;20117;-69
2021/06/30 10:13:11;;;;;;;8.63;4.20;;;;;;;14.18;96.10;101493.72;4961103;28;20070;-69
2021/06/30 10:15:43;;;;;;;10.38;5.03;;;;;;;14.41;96.90;101492.88;4955057;28;20145;-69
2021/06/30 10:18:10;;;;;;;9.95;4.22;;;;;;;14.36;95.56;101484.09;4956821;28;20074;-69
2021/06/30 10:20:41;;;;;;;9.38;3.85;;;;;;;14.31;96.07;101489.63;4955051;28;20067;-69
2021/06/30 10:23:09;;;;;;;8.27;4.18;;;;;;;14.33;97.36;101493.13;4959077;28;20157;-69
2021/06/30 10:25:37;;;;;;;6.97;3.55;;;;;;;14.08;98.00;101503.03;4955903;28;20063;-68
2021/06/30 10:28:06;;;;;;;8.57;3.88;;;;;;;14.09;98.87;101497.59;4960203;28;20319;-69
2021/06/30 10:30:33;;;;;;;10.73;4.43;;;;;;;14.12;99.88;101500.19;4956281;28;20148;-69
2021/06/30 10:33:04;;;;;;;9.18;3.72;;;;;;;14.23;100.00;101491.72;4956445;28;20113;-70
2021/06/30 10:35:44;;;;;;;7.00;3.50;;;;;;;14.23;100.00;101493.53;4954632;28;20073;-71
2021/06/30 10:38:12;;;;;;;5.97;2.88;;;;;;;14.23;100.00;101507.84;4958793;28;20122;-71
2021/06/30 10:40:40;;;;;;;9.93;3.90;;;;;;;14.17;100.00;101502.72;4957561;28;20071;-71
2021/06/30 10:43:12;;;;;;;11.60;3.70;;;;;;;14.16;99.40;101500.94;4956069;28;20101;-71
2021/06/30 10:45:40;;;;;;;8.80;3.15;;;;;;;14.08;99.03;101501.25;4957142;28;20047;-72
2021/06/30 10:48:13;;;;;;;10.88;3.17;;;;;;;14.34;99.39;101505.63;4956043;28;20090;-71
2021/06/30 10:50:43;;;;;;;6.73;3.30;;;;;;;14.52;97.86;101511.25;4958120;28;20109;-71
2021/06/30 10:53:44;;;;;;;8.65;3.58;;;;;;;14.46;97.02;101504.31;4955273;28;20070;-71
2021/06/30 10:56:12;;;;;;;5.35;2.42;;;;;;;14.41;97.45;101511.66;4910449;29;20131;-72
2021/06/30 10:58:43;;;;;;;6.35;2.90;;;;;;;14.43;97.34;101511.59;4909416;29;20096;-74
2021/06/30 11:01:16;;;;;;;4.65;2.45;;;;;;;14.49;97.43;101504.19;4911429;29;20045;-74
2021/06/30 11:03:53;;;;;;;4.90;2.53;;;;;;;14.58;96.63;101505.66;4911646;29;20059;-75
2021/06/30 11:06:26;;;;;;;5.40;3.03;;;;;;;14.60;95.55;101506.50;4912085;29;20063;-74
2021/06/30 11:08:56;;;;;;;7.20;3.17;;;;;;;14.89;95.70;101516.09;4908676;29;20064;-74
2021/06/30 11:11:53;;;;;;;7.10;3.55;;;;;;;14.97;94.91;101517.63;4914012;29;20165;-75
2021/06/30 11:14:23;;;;;;;9.10;4.15;;;;;;;15.08;95.34;101510.00;4911726;29;20480;-75
2021/06/30 11:16:55;;;;;;;9.27;4.32;;;;;;;14.94;94.95;101518.63;4912728;29;20476;-74
2021/06/30 11:19:41;;;;;;;8.75;4.13;;;;;;;14.70;94.92;101520.44;4908330;29;20633;-73
2021/06/30 11:22:22;;;;;;;9.38;3.90;;;;;;;14.31;95.66;101516.47;4910377;29;20115;-72
2021/06/30 11:24:50;;;;;;;7.90;3.80;;;;;;;14.43;97.38;101515.16;4909166;29;20347;-73
2021/06/30 11:27:43;;;;;;;10.05;4.07;;;;;;;14.45;96.79;101521.34;4931496;28;20110;-72
2021/06/30 11:30:12;;;;;;;10.23;4.60;;;;;;;14.63;96.48;101518.94;4953978;28;20074;-72
2021/06/30 11:32:48;;;;;;;10.02;4.85;;;;;;;14.76;94.57;101512.13;4957570;28;20524;-72
2021/06/30 11:35:34;;;;;;;11.02;4.88;;;;;;;14.93;95.01;101514.16;4956189;28;20066;-73
2021/06/30 11:38:11;;;;;;;10.40;4.88;;;;;;;14.97;94.05;101514.94;4952960;28;20315;-70